Time;durP1;ratioP1;P1;durP2;ratioP2;P2;SDS_P1;SDS_P2;PMS_P1;PMS_P2;Temp;Humidity;BMP_temperature;BMP_pressure;BME280_temperature;BME280_humidity;BME280_pressure;Samples;Min_cycle;Max_cycle;Signal;HPM_P1;HPM_P2
2022/07/26 00:01:21;;;;;;;16.13;2.83;;;;;;;18.05;68.28;99029.22;10480657;28;20115;-72
2022/07/26 00:06:24;;;;;;;11.23;2.00;;;;;;;18.05;68.23;99037.16;10476100;28;20111;-72
2022/07/26 00:11:27;;;;;;;17.08;2.38;;;;;;;18.04;68.33;99039.88;10479950;28;20052;-72
2022/07/26 00:16:29;;;;;;;15.93;2.50;;;;;;;18.04;68.60;99053.97;10480739;28;20033;-72
2022/07/26 00:21:30;;;;;;;21.63;3.08;;;;;;;18.11;68.96;99095.16;10480520;28;20048;-72
2022/07/26 00:26:33;;;;;;;11.35;1.80;;;;;;;18.11;69.25;99096.97;10483782;28;20029;-72
2022/07/26 00:31:34;;;;;;;13.73;2.55;;;;;;;18.07;69.47;99098.84;10493253;28;20045;-72
2022/07/26 00:36:36;;;;;;;11.43;2.08;;;;;;;18.08;69.48;99108.53;10488650;28;20123;-72
2022/07/26 00:41:42;;;;;;;12.55;2.85;;;;;;;18.07;69.94;99111.25;10486105;28;20041;-72
2022/07/26 00:46:43;;;;;;;14.95;2.25;;;;;;;17.95;69.86;99075.53;10488582;28;20060;-72
2022/07/26 00:51:45;;;;;;;14.30;2.40;;;;;;;17.85;70.08;99045.91;10488075;28;20147;-72
2022/07/26 00:56:47;;;;;;;13.95;2.42;;;;;;;17.70;70.29;98991.78;10488299;28;20040;-72
2022/07/26 01:01:55;;;;;;;13.10;2.75;;;;;;;17.64;70.30;98982.31;10486129;28;20064;-72
2022/07/26 01:06:57;;;;;;;12.75;2.47;;;;;;;17.53;70.83;98933.38;10486346;28;20036;-72
2022/07/26 01:11:59;;;;;;;13.63;2.45;;;;;;;17.47;71.00;98924.78;10486969;28;20048;-72
2022/07/26 01:17:00;;;;;;;12.57;3.05;;;;;;;17.43;71.11;98914.38;10487291;28;20040;-72
2022/07/26 01:22:02;;;;;;;11.90;2.65;;;;;;;17.45;71.17;98939.84;10486555;28;20123;-72
2022/07/26 01:27:03;;;;;;;14.80;4.10;;;;;;;17.41;71.36;98926.81;10485168;28;20036;-72
2022/07/26 01:32:06;;;;;;;16.00;1.88;;;;;;;17.36;71.52;98912.91;10491451;28;20522;-72
2022/07/26 01:37:08;;;;;;;9.85;2.50;;;;;;;17.26;71.93;98889.50;10486189;28;20051;-72
2022/07/26 01:42:09;;;;;;;19.58;3.17;;;;;;;17.17;72.26;98850.16;10485272;28;20066;-72
2022/07/26 01:47:11;;;;;;;13.18;2.40;;;;;;;17.10;72.20;98833.72;10491195;28;20769;-72
2022/07/26 01:52:12;;;;;;;11.45;2.50;;;;;;;17.08;72.62;98834.69;10484934;28;20531;-72
2022/07/26 01:57:14;;;;;;;15.98;2.78;;;;;;;17.04;72.56;98830.44;10486258;28;20040;-72
2022/07/26 02:02:15;;;;;;;16.75;2.65;;;;;;;16.97;72.83;98808.69;10485419;28;20054;-72
2022/07/26 02:07:17;;;;;;;14.10;2.80;;;;;;;16.95;73.38;98819.31;10485521;28;20488;-72
2022/07/26 02:12:19;;;;;;;23.05;3.25;;;;;;;16.92;73.67;98808.88;10485198;28;20064;-72
2022/07/26 02:17:20;;;;;;;12.15;2.53;;;;;;;16.92;73.59;98822.09;10485225;28;20679;-71
2022/07/26 02:22:22;;;;;;;22.27;3.55;;;;;;;16.93;73.81;98841.44;10484757;28;20102;-72
2022/07/26 02:27:24;;;;;;;12.40;2.80;;;;;;;16.90;74.10;98828.34;10484375;28;20036;-72
2022/07/26 02:32:26;;;;;;;17.25;2.85;;;;;;;16.87;74.12;98828.47;10483487;28;20549;-72
2022/07/26 02:37:27;;;;;;;19.58;2.70;;;;;;;16.81;74.48;98810.19;10482363;28;20037;-72
2022/07/26 02:42:29;;;;;;;14.63;2.70;;;;;;;16.74;74.61;98799.03;10482500;28;20123;-72
2022/07/26 02:47:31;;;;;;;14.35;3.13;;;;;;;16.72;74.88;98792.91;10483345;28;20047;-72
2022/07/26 02:52:33;;;;;;;20.60;3.42;;;;;;;16.69;74.93;98790.41;10482924;28;20036;-72
2022/07/26 02:57:34;;;;;;;13.82;2.38;;;;;;;16.66;75.49;98788.72;10482965;28;20032;-72
2022/07/26 03:02:48;;;;;;;16.27;3.00;;;;;;;16.60;75.31;98776.66;10481290;28;20702;-72
2022/07/26 03:07:49;;;;;;;12.40;2.67;;;;;;;16.59;75.61;98776.72;10482162;28;20060;-72
2022/07/26 03:12:51;;;;;;;17.70;2.85;;;;;;;16.63;76.05;98795.94;10480754;28;20048;-72
2022/07/26 03:17:54;;;;;;;14.90;3.10;;;;;;;16.65;76.29;98817.84;10482304;28;20043;-72
2022/07/26 03:22:55;;;;;;;10.50;3.17;;;;;;;16.64;76.56;98832.84;10480070;28;20488;-72
2022/07/26 03:27:57;;;;;;;17.85;3.50;;;;;;;16.65;76.65;98846.91;10472823;28;20047;-72
2022/07/26 03:32:58;;;;;;;14.90;2.67;;;;;;;16.63;76.59;98840.84;10480079;28;20056;-71
2022/07/26 03:38:00;;;;;;;18.27;4.20;;;;;;;16.58;77.03;98828.66;10480168;28;20038;-72
2022/07/26 03:43:01;;;;;;;16.63;2.88;;;;;;;16.59;77.24;98843.63;10480005;28;20097;-71
2022/07/26 03:48:03;;;;;;;16.38;2.97;;;;;;;16.63;77.48;98864.63;10480802;28;20587;-72
2022/07/26 03:53:05;;;;;;;18.60;2.90;;;;;;;16.68;77.35;98892.59;10478864;28;20503;-71
2022/07/26 03:58:07;;;;;;;18.05;3.08;;;;;;;16.72;77.74;98920.66;10468802;28;20063;-71
2022/07/26 04:03:09;;;;;;;15.65;3.47;;;;;;;16.71;77.94;98920.66;10479873;28;20116;-72
2022/07/26 04:08:10;;;;;;;20.83;3.45;;;;;;;16.77;77.93;98949.53;10479065;28;20502;-72
2022/07/26 04:13:12;;;;;;;16.77;3.05;;;;;;;16.87;78.25;99001.16;10479171;28;20044;-72
2022/07/26 04:18:14;;;;;;;17.65;2.72;;;;;;;16.86;78.24;99011.75;10487170;28;20056;-72
2022/07/26 04:23:15;;;;;;;12.95;3.63;;;;;;;16.89;78.49;99035.44;10479283;28;20047;-72
2022/07/26 04:28:17;;;;;;;13.13;2.92;;;;;;;16.90;78.85;99037.19;10480459;28;20045;-73
2022/07/26 04:33:18;;;;;;;13.10;2.63;;;;;;;16.96;79.09;99071.31;10491188;28;20045;-74
2022/07/26 04:38:20;;;;;;;11.60;2.85;;;;;;;17.02;78.98;99105.47;10480289;28;20041;-73
2022/07/26 04:43:22;;;;;;;18.40;3.95;;;;;;;17.04;79.28;99116.88;10477521;28;20516;-77
2022/07/26 04:48:24;;;;;;;17.58;3.10;;;;;;;16.96;79.50;99100.41;10493198;28;20052;-78
2022/07/26 04:53:26;;;;;;;15.05;4.22;;;;;;;16.85;79.36;99055.84;10486331;28;20512;-78
2022/07/26 04:58:27;;;;;;;12.82;3.53;;;;;;;16.74;79.81;99019.22;10492019;28;20037;-79
2022/07/26 05:03:29;;;;;;;7.38;2.40;;;;;;;16.59;80.00;98964.28;10492822;28;20083;-78
2022/07/26 05:08:30;;;;;;;10.30;2.83;;;;;;;16.49;79.79;98925.91;10504201;28;20059;-80
2022/07/26 05:13:32;;;;;;;8.07;2.67;;;;;;;16.46;80.26;98931.31;10492297;28;20471;-80
2022/07/26 05:18:33;;;;;;;12.35;2.78;;;;;;;16.41;80.19;98919.13;10501237;28;20060;-80
2022/07/26 05:23:49;;;;;;;9.10;2.70;;;;;;;16.31;80.75;98886.03;10496625;28;20055;-78
2022/07/26 05:28:50;;;;;;;9.65;2.78;;;;;;;16.31;80.83;98896.59;10492571;28;20140;-77
2022/07/26 05:33:53;;;;;;;9.38;2.67;;;;;;;16.37;81.02;98938.66;10486348;28;20040;-77
2022/07/26 05:38:55;;;;;;;6.68;2.55;;;;;;;16.41;81.28;98949.97;10487512;28;20032;-77
2022/07/26 05:43:57;;;;;;;13.43;2.90;;;;;;;16.51;81.37;99006.81;10482093;28;20534;-77
2022/07/26 05:48:59;;;;;;;14.35;4.03;;;;;;;16.59;81.56;99040.91;10485364;28;20135;-77
2022/07/26 05:54:00;;;;;;;9.57;2.70;;;;;;;16.60;81.59;99051.44;10484471;28;20504;-77
2022/07/26 05:59:02;;;;;;;10.88;2.60;;;;;;;16.56;81.88;99041.88;10485767;28;20051;-76
2022/07/26 06:04:04;;;;;;;9.93;2.83;;;;;;;16.61;82.17;99073.44;10483885;28;20044;-75
2022/07/26 06:09:06;;;;;;;9.75;2.35;;;;;;;16.70;82.35;99114.53;10484345;28;20427;-77
2022/07/26 06:14:07;;;;;;;7.30;2.00;;;;;;;16.63;82.42;99099.78;10484320;28;20589;-76
2022/07/26 06:19:09;;;;;;;7.80;1.60;;;;;;;16.49;82.59;99045.66;10484199;28;20050;-77
2022/07/26 06:24:12;;;;;;;6.20;1.50;;;;;;;16.52;82.80;99065.81;10491139;28;20049;-77
2022/07/26 06:29:13;;;;;;;6.68;1.30;;;;;;;16.63;82.71;99118.28;10483271;28;20062;-78
2022/07/26 06:34:15;;;;;;;4.47;1.02;;;;;;;16.61;82.87;99121.84;10477942;28;20041;-77
2022/07/26 06:39:17;;;;;;;6.80;1.60;;;;;;;16.70;83.07;99162.94;10483205;28;20048;-77
2022/07/26 06:44:18;;;;;;;4.75;1.00;;;;;;;16.86;83.38;99237.31;10503304;28;20051;-77
2022/07/26 06:49:20;;;;;;;8.57;1.20;;;;;;;16.92;83.41;99263.56;10491615;28;20567;-78
2022/07/26 06:54:23;;;;;;;5.88;1.20;;;;;;;17.02;83.53;99305.56;10488482;28;20036;-77
2022/07/26 06:59:25;;;;;;;9.82;1.38;;;;;;;17.08;83.86;99353.84;10487494;28;20067;-79
2022/07/26 07:04:28;;;;;;;4.35;1.23;;;;;;;17.29;83.75;99438.69;10494250;28;20444;-78
2022/07/26 07:09:35;;;;;;;4.43;1.15;;;;;;;17.81;83.64;99662.00;10492431;28;20040;-78
2022/07/26 07:14:37;;;;;;;8.45;2.58;;;;;;;18.04;83.90;99757.59;10491674;28;20052;-78
2022/07/26 07:19:39;;;;;;;5.05;1.08;;;;;;;17.66;83.90;99601.59;10494015;28;20065;-77
2022/07/26 07:24:41;;;;;;;3.35;0.88;;;;;;;17.10;84.00;99383.75;10494011;28;20459;-81
2022/07/26 07:29:43;;;;;;;5.10;1.02;;;;;;;16.81;84.14;99246.31;10493145;28;20036;-80
2022/07/26 07:34:46;;;;;;;5.57;0.80;;;;;;;16.73;83.93;99239.50;10493799;28;20040;-79
2022/07/26 07:39:48;;;;;;;4.47;1.05;;;;;;;16.86;84.15;99295.47;10492681;28;20040;-78
2022/07/26 07:44:50;;;;;;;5.00;1.10;;;;;;;17.90;84.15;99734.19;10491340;28;20041;-79
2022/07/26 07:49:52;;;;;;;8.30;1.10;;;;;;;17.93;84.11;99753.50;10490052;28;20113;-79
2022/07/26 07:54:54;;;;;;;6.32;1.00;;;;;;;18.08;84.28;99823.69;10506556;28;20103;-78
2022/07/26 08:00:18;;;;;;;6.55;1.10;;;;;;;18.19;84.35;99860.47;10494895;28;20108;-78
2022/07/26 08:05:19;;;;;;;6.03;0.90;;;;;;;18.85;84.19;100155.53;10490143;28;20459;-79
2022/07/26 08:10:22;;;;;;;5.60;0.70;;;;;;;19.19;84.49;100299.69;10494226;28;20452;-78
2022/07/26 08:15:23;;;;;;;5.80;0.75;;;;;;;19.69;84.30;100506.38;10502724;28;20052;-79
2022/07/26 08:20:25;;;;;;;7.40;0.80;;;;;;;20.04;83.87;100657.00;10486973;28;20052;-78
2022/07/26 08:25:27;;;;;;;6.80;1.08;;;;;;;20.10;84.03;100686.09;10498320;28;20080;-78
2022/07/26 08:30:29;;;;;;;5.47;1.48;;;;;;;19.98;83.70;100622.56;10485855;28;20119;-78
2022/07/26 08:35:31;;;;;;;6.32;0.93;;;;;;;18.70;83.65;100068.41;10484795;28;20068;-78
2022/07/26 08:40:32;;;;;;;5.80;0.80;;;;;;;17.16;83.37;99413.53;10472748;28;20547;-77
2022/07/26 08:45:34;;;;;;;5.45;1.00;;;;;;;16.87;83.03;99302.50;10479487;28;22337;-76
2022/07/26 08:50:36;;;;;;;6.75;0.73;;;;;;;17.00;83.22;99358.50;10487681;28;20041;-76
2022/07/26 08:55:38;;;;;;;4.40;0.90;;;;;;;17.91;83.08;99750.03;10489857;28;20131;-78
2022/07/26 09:01:08;;;;;;;4.90;0.98;;;;;;;19.30;82.99;100342.72;10493841;28;20045;-78
2022/07/26 09:06:14;;;;;;;5.43;0.80;;;;;;;19.91;82.85;100600.59;10480899;28;20047;-77
2022/07/26 09:11:30;;;;;;;6.88;0.98;;;;;;;20.19;82.76;100708.03;10493312;28;20136;-76
2022/07/26 09:16:31;;;;;;;6.53;1.00;;;;;;;20.39;82.38;100785.53;10495877;28;20044;-76
2022/07/26 09:21:39;;;;;;;4.72;1.10;;;;;;;20.83;82.17;100969.00;10497619;28;20102;-76
2022/07/26 09:26:54;;;;;;;6.97;1.10;;;;;;;21.03;81.68;101048.38;10484042;28;20036;-74
2022/07/26 09:32:17;;;;;;;3.42;0.63;;;;;;;21.71;81.48;101337.31;10487830;28;20112;-74
2022/07/26 09:37:33;;;;;;;2.25;0.57;;;;;;;21.15;81.05;101077.41;10486139;28;20041;-74
2022/07/26 09:42:34;;;;;;;3.47;0.80;;;;;;;20.52;80.53;100790.56;10485835;28;20438;-74
2022/07/26 09:47:39;;;;;;;7.75;0.88;;;;;;;21.10;80.07;101035.84;10489195;28;20136;-73
2022/07/26 09:53:00;;;;;;;3.42;0.65;;;;;;;20.90;79.53;100938.69;10488806;28;20033;-73
2022/07/26 09:58:05;;;;;;;4.05;0.80;;;;;;;19.88;79.09;100483.78;10481405;28;20044;-74
2022/07/26 10:03:06;;;;;;;9.63;1.17;;;;;;;19.20;78.84;100201.47;10483865;28;20074;-74
2022/07/26 10:08:09;;;;;;;5.15;0.90;;;;;;;18.78;78.06;100021.34;10484751;28;20052;-73
2022/07/26 10:13:11;;;;;;;9.00;1.48;;;;;;;19.05;78.00;100133.78;10483684;28;20037;-73
2022/07/26 10:18:34;;;;;;;5.25;0.98;;;;;;;19.06;77.52;100135.50;10479134;28;20067;-73
2022/07/26 10:23:44;;;;;;;5.88;0.90;;;;;;;19.31;77.45;100238.31;10481387;28;20118;-74
2022/07/26 10:28:46;;;;;;;6.07;1.10;;;;;;;19.49;76.82;100303.31;10483617;28;20043;-75
2022/07/26 10:33:49;;;;;;;6.30;1.15;;;;;;;19.53;76.65;100318.25;10481821;28;20115;-75
2022/07/26 10:39:14;;;;;;;9.27;1.27;;;;;;;20.34;76.43;100653.59;10474344;28;20957;-75
2022/07/26 10:44:24;;;;;;;4.40;0.95;;;;;;;21.40;75.75;101094.63;10479944;28;20045;-75
2022/07/26 10:49:35;;;;;;;7.63;1.13;;;;;;;20.99;75.66;100905.66;10476881;28;20136;-74
2022/07/26 10:54:55;;;;;;;9.15;1.30;;;;;;;20.08;75.10;100500.97;10493754;28;20147;-75
2022/07/26 10:59:58;;;;;;;6.40;1.02;;;;;;;19.45;74.81;100251.19;10479348;28;20049;-75
2022/07/26 11:05:15;;;;;;;5.32;1.00;;;;;;;19.81;74.55;100389.22;10481274;28;20036;-75
2022/07/26 11:10:21;;;;;;;10.55;1.45;;;;;;;20.52;73.99;100682.38;10478363;28;20512;-75
2022/07/26 11:15:23;;;;;;;8.68;1.50;;;;;;;20.28;73.67;100567.78;10482261;28;20044;-74
2022/07/26 11:20:25;;;;;;;10.38;0.93;;;;;;;19.94;73.55;100418.97;10481386;28;20079;-73
2022/07/26 11:25:30;;;;;;;10.23;1.35;;;;;;;19.32;72.81;100149.81;10481020;28;20037;-75
2022/07/26 11:30:32;;;;;;;8.35;1.60;;;;;;;19.04;72.89;100044.47;10481493;28;20123;-74
2022/07/26 11:35:33;;;;;;;10.13;1.63;;;;;;;18.90;72.63;99989.19;10474715;28;20123;-74
2022/07/26 11:40:46;;;;;;;11.57;1.75;;;;;;;19.02;72.31;100030.38;10480440;28;20040;-74
2022/07/26 11:45:51;;;;;;;10.70;1.85;;;;;;;18.83;71.86;99950.47;10481228;28;20049;-75
2022/07/26 11:51:11;;;;;;;15.20;2.28;;;;;;;18.41;71.94;99772.38;10479406;28;20055;-74
2022/07/26 11:56:15;;;;;;;16.85;2.90;;;;;;;18.22;71.38;99697.88;10477983;28;20422;-74
2022/07/26 12:01:21;;;;;;;13.40;1.95;;;;;;;18.27;71.61;99723.31;10479792;28;20036;-74
2022/07/26 12:06:25;;;;;;;10.05;2.00;;;;;;;18.47;71.22;99810.16;10473431;28;20048;-74
2022/07/26 12:11:37;;;;;;;9.95;1.58;;;;;;;19.07;71.21;100051.47;10479484;28;20051;-74
2022/07/26 12:16:40;;;;;;;10.02;1.95;;;;;;;19.75;71.08;100334.44;10479235;28;20039;-74
2022/07/26 12:21:43;;;;;;;15.63;2.10;;;;;;;19.92;70.94;100400.44;10482109;28;20048;-74
2022/07/26 12:26:45;;;;;;;13.27;2.00;;;;;;;19.90;70.31;100380.13;10488420;28;20033;-74
2022/07/26 12:32:12;;;;;;;11.55;1.80;;;;;;;20.20;70.12;100508.63;10488093;28;20044;-74
2022/07/26 12:37:16;;;;;;;10.77;1.50;;;;;;;20.70;69.92;100706.78;10487846;28;20663;-74
2022/07/26 12:42:22;;;;;;;9.82;1.67;;;;;;;20.73;69.70;100712.91;10494154;28;20143;-74
2022/07/26 12:47:39;;;;;;;10.27;1.85;;;;;;;20.59;69.47;100651.19;10487466;28;20470;-74
2022/07/26 12:52:41;;;;;;;11.25;1.90;;;;;;;20.38;69.12;100548.91;10485665;28;20512;-73
2022/07/26 12:57:44;;;;;;;15.52;2.95;;;;;;;20.42;68.41;100558.56;10481755;28;20054;-74
2022/07/26 13:02:48;;;;;;;4.50;1.45;;;;;;;20.78;68.35;100710.13;10480497;28;20117;-74
2022/07/26 13:07:50;;;;;;;9.25;1.30;;;;;;;20.67;67.89;100646.53;10486737;28;20161;-74
2022/07/26 13:12:52;;;;;;;7.05;1.40;;;;;;;20.36;67.83;100517.06;10486503;28;20119;-74
2022/07/26 13:17:54;;;;;;;9.32;1.42;;;;;;;20.58;67.15;100606.88;10485994;28;20139;-74
2022/07/26 13:22:55;;;;;;;15.63;1.50;;;;;;;20.45;67.00;100542.53;10485428;28;20562;-74
2022/07/26 13:27:57;;;;;;;9.23;1.33;;;;;;;21.15;66.55;100827.16;10484264;28;20040;-74
2022/07/26 13:32:58;;;;;;;11.02;1.90;;;;;;;21.49;66.28;100964.75;10476448;28;20565;-75
2022/07/26 13:38:00;;;;;;;8.55;1.58;;;;;;;;;;10482718;28;20462;-73
2022/07/26 13:43:03;;;;;;;8.73;1.30;;;;;;;20.77;65.62;100647.19;10482688;28;20508;-74
2022/07/26 13:48:04;;;;;;;4.90;1.20;;;;;;;21.17;65.41;100806.66;10483984;28;20083;-75
2022/07/26 13:53:06;;;;;;;8.07;1.30;;;;;;;21.19;65.29;100809.28;10481763;28;20044;-74
2022/07/26 13:58:07;;;;;;;5.32;1.10;;;;;;;20.90;64.84;100677.88;10477370;28;20051;-75
2022/07/26 14:03:10;;;;;;;7.35;1.50;;;;;;;20.77;64.18;100623.25;10490221;28;20053;-75
2022/07/26 14:08:12;;;;;;;6.03;1.55;;;;;;;20.59;64.20;100545.66;10484147;28;20044;-76
2022/07/26 14:13:14;;;;;;;6.88;1.25;;;;;;;20.49;63.91;100498.94;10482881;28;20068;-76
2022/07/26 14:18:15;;;;;;;6.45;1.25;;;;;;;20.84;63.51;100630.13;10484149;28;20037;-76
2022/07/26 14:23:17;;;;;;;4.82;1.20;;;;;;;20.86;63.40;100633.63;10483549;28;20556;-76
2022/07/26 14:28:18;;;;;;;4.88;0.90;;;;;;;20.80;63.07;100605.38;10484567;28;20514;-76
2022/07/26 14:33:20;;;;;;;5.38;1.02;;;;;;;21.06;62.86;100707.56;10482550;28;20058;-76
2022/07/26 14:38:21;;;;;;;5.38;1.25;;;;;;;20.73;62.46;100573.69;10483266;28;20124;-76
2022/07/26 14:43:30;;;;;;;5.28;1.08;;;;;;;20.51;62.25;100475.84;10478920;28;20052;-76
2022/07/26 14:48:32;;;;;;;6.70;1.10;;;;;;;20.12;62.13;100322.78;10474573;28;20032;-76
2022/07/26 14:53:53;;;;;;;5.50;1.10;;;;;;;20.32;61.65;100398.41;10477036;28;20636;-76
2022/07/26 14:58:55;;;;;;;7.75;1.23;;;;;;;20.46;61.48;100451.16;10482456;28;20064;-76
2022/07/26 15:03:57;;;;;;;4.95;1.52;;;;;;;20.19;61.62;100334.13;10480996;28;20036;-76
2022/07/26 15:08:59;;;;;;;8.52;1.45;;;;;;;20.41;61.40;100423.84;10480862;28;20419;-76
2022/07/26 15:14:00;;;;;;;4.88;0.90;;;;;;;20.41;61.25;100423.84;10480512;28;20128;-76
2022/07/26 15:19:06;;;;;;;6.95;1.20;;;;;;;21.04;60.92;100676.63;10476374;28;20423;-75
2022/07/26 15:24:09;;;;;;;7.65;1.30;;;;;;;21.05;60.82;100668.59;10493437;28;20119;-74
2022/07/26 15:29:11;;;;;;;8.10;1.33;;;;;;;21.34;60.51;100786.69;10479538;28;20496;-75
2022/07/26 15:34:13;;;;;;;3.75;0.98;;;;;;;21.59;60.32;100882.84;10480407;28;20036;-74
2022/07/26 15:39:15;;;;;;;6.32;1.40;;;;;;;21.67;60.03;100912.78;10481516;28;20044;-74
2022/07/26 15:44:20;;;;;;;5.72;1.23;;;;;;;20.97;59.84;100615.56;10481345;28;20419;-75
2022/07/26 15:49:24;;;;;;;8.45;1.15;;;;;;;20.38;59.52;100381.41;10487700;28;20547;-75
2022/07/26 15:54:26;;;;;;;6.07;1.13;;;;;;;20.16;59.32;100291.66;10481460;28;20123;-74
2022/07/26 15:59:28;;;;;;;6.05;1.23;;;;;;;19.88;59.45;100178.25;10480455;28;20411;-75
2022/07/26 16:04:29;;;;;;;9.82;1.35;;;;;;;19.68;59.29;100109.78;10475399;28;20071;-75
2022/07/26 16:09:32;;;;;;;9.40;1.50;;;;;;;20.02;58.88;100240.72;10479730;28;20060;-74
2022/07/26 16:14:34;;;;;;;11.18;1.42;;;;;;;20.90;59.08;100595.38;10474029;28;20620;-74
2022/07/26 16:19:35;;;;;;;6.78;1.40;;;;;;;20.59;59.05;100475.63;10478329;28;20124;-74
2022/07/26 16:24:37;;;;;;;6.43;1.70;;;;;;;20.34;58.94;100364.66;10473453;28;20044;-74
2022/07/26 16:29:38;;;;;;;9.90;1.60;;;;;;;20.01;58.74;100239.88;10479140;28;20033;-74
2022/07/26 16:34:40;;;;;;;8.63;1.40;;;;;;;19.66;58.83;100089.50;10479622;28;20055;-74
2022/07/26 16:39:41;;;;;;;7.05;1.23;;;;;;;19.34;58.41;99971.94;10479068;28;20647;-74
2022/07/26 16:44:43;;;;;;;9.13;1.38;;;;;;;19.69;58.48;100116.81;10487999;28;20515;-74
2022/07/26 16:49:45;;;;;;;6.88;1.20;;;;;;;19.66;58.20;100097.47;10478041;28;20465;-74
2022/07/26 16:54:46;;;;;;;4.90;1.02;;;;;;;19.23;58.39;99927.13;10479236;28;20041;-74
2022/07/26 16:59:48;;;;;;;10.20;2.20;;;;;;;18.88;58.25;99799.16;10479083;28;20686;-74
2022/07/26 17:04:49;;;;;;;13.05;1.75;;;;;;;18.81;58.45;99771.97;10478670;28;20036;-75
2022/07/26 17:09:52;;;;;;;5.15;1.10;;;;;;;18.70;58.51;99736.97;10484078;28;20066;-75
2022/07/26 17:14:53;;;;;;;6.10;1.83;;;;;;;18.88;58.62;99821.25;10483215;28;20559;-75
2022/07/26 17:19:55;;;;;;;5.28;1.20;;;;;;;19.80;58.38;100182.91;10477938;28;20124;-75
2022/07/26 17:24:56;;;;;;;5.07;0.90;;;;;;;20.01;58.38;100260.22;10486120;28;20062;-75
2022/07/26 17:29:58;;;;;;;4.80;0.85;;;;;;;19.90;58.24;100216.25;10485424;28;20146;-75
2022/07/26 17:35:07;;;;;;;6.13;0.80;;;;;;;18.89;58.11;99822.97;10491906;28;20056;-76
2022/07/26 17:40:10;;;;;;;3.25;0.82;;;;;;;18.32;57.76;99590.69;10485404;28;20087;-75
2022/07/26 17:45:12;;;;;;;3.10;0.70;;;;;;;18.20;57.87;99555.72;10485433;28;20052;-75
2022/07/26 17:50:14;;;;;;;4.43;0.93;;;;;;;18.07;57.45;99504.09;10484107;28;20036;-74
2022/07/26 17:55:35;;;;;;;3.83;0.80;;;;;;;17.89;57.84;99447.31;10477105;28;20052;-75
2022/07/26 18:00:37;;;;;;;4.53;0.93;;;;;;;17.79;57.48;99403.50;10482167;28;20414;-75
2022/07/26 18:05:38;;;;;;;3.17;1.00;;;;;;;17.65;57.28;99351.06;10483549;28;20128;-75
2022/07/26 18:10:42;;;;;;;3.53;0.73;;;;;;;17.50;57.43;99310.09;10479365;28;20045;-75
2022/07/26 18:15:51;;;;;;;3.42;0.73;;;;;;;17.38;57.38;99261.13;10480964;28;20080;-74
2022/07/26 18:20:53;;;;;;;2.72;0.60;;;;;;;17.26;57.49;99220.13;10484076;28;20045;-74
2022/07/26 18:25:56;;;;;;;4.00;0.95;;;;;;;17.11;57.53;99157.16;10493377;28;20047;-74
2022/07/26 18:30:58;;;;;;;2.88;0.55;;;;;;;17.05;57.59;99137.09;10474466;28;20136;-75
2022/07/26 18:36:00;;;;;;;4.32;0.90;;;;;;;16.95;57.59;99109.28;10481933;28;20048;-74
2022/07/26 18:41:02;;;;;;;6.38;0.70;;;;;;;16.86;57.58;99083.13;10486193;28;20079;-74
2022/07/26 18:46:05;;;;;;;2.97;0.70;;;;;;;16.80;57.79;99063.06;10474983;28;20500;-75
2022/07/26 18:51:06;;;;;;;6.38;0.90;;;;;;;16.73;57.77;99046.56;10467230;28;20064;-74
2022/07/26 18:56:08;;;;;;;2.83;0.75;;;;;;;16.63;57.89;99016.09;10483058;28;20119;-75
2022/07/26 19:01:10;;;;;;;6.90;1.33;;;;;;;16.54;57.89;98980.31;10478975;28;20612;-75
2022/07/26 19:06:11;;;;;;;3.63;0.82;;;;;;;16.42;57.95;98943.75;10480683;28;20044;-75
2022/07/26 19:11:13;;;;;;;5.05;1.00;;;;;;;16.38;58.10;98935.09;10482285;28;20124;-74
2022/07/26 19:16:15;;;;;;;5.28;0.80;;;;;;;16.33;58.25;98923.81;10490695;28;20054;-74
2022/07/26 19:21:16;;;;;;;2.50;0.80;;;;;;;16.23;58.36;98893.41;10481952;28;20028;-74
2022/07/26 19:26:18;;;;;;;4.32;0.88;;;;;;;16.12;58.61;98859.44;10488674;28;20040;-74
2022/07/26 19:31:20;;;;;;;2.83;0.82;;;;;;;16.01;58.50;98819.41;10472480;28;20553;-74
2022/07/26 19:36:22;;;;;;;3.17;0.70;;;;;;;15.93;58.73;98793.28;10481159;28;20143;-74
2022/07/26 19:41:26;;;;;;;3.33;0.90;;;;;;;15.93;58.79;98806.47;10480316;28;20078;-74
2022/07/26 19:46:28;;;;;;;2.72;0.77;;;;;;;15.88;58.87;98801.38;10480921;28;20127;-74
2022/07/26 19:51:30;;;;;;;3.67;0.90;;;;;;;15.85;59.17;98795.31;10480177;28;20033;-75
2022/07/26 19:56:31;;;;;;;8.05;1.15;;;;;;;15.79;59.44;98769.16;10481497;28;20458;-74
2022/07/26 20:01:33;;;;;;;1.75;0.93;;;;;;;15.74;59.51;98759.59;10480325;28;20047;-74
2022/07/26 20:06:35;;;;;;;1.92;0.60;;;;;;;15.64;59.67;98729.22;10480792;28;20036;-74
2022/07/26 20:11:37;;;;;;;3.55;1.20;;;;;;;15.54;59.66;98704.94;10480915;28;20120;-74
2022/07/26 20:16:39;;;;;;;7.15;1.10;;;;;;;15.38;59.96;98651.88;10479522;28;20059;-74
2022/07/26 20:21:40;;;;;;;3.42;1.10;;;;;;;15.33;60.10;98637.16;10480474;28;20039;-74
2022/07/26 20:26:42;;;;;;;6.00;1.08;;;;;;;15.19;60.31;98592.81;10480543;28;20060;-74
2022/07/26 20:31:44;;;;;;;6.18;1.20;;;;;;;15.03;60.48;98532.78;10479691;28;20044;-74
2022/07/26 20:36:46;;;;;;;2.38;0.70;;;;;;;14.99;60.62;98528.53;10480480;28;20040;-74
2022/07/26 20:41:48;;;;;;;3.20;0.90;;;;;;;14.99;60.88;98538.22;10481872;28;20745;-74
2022/07/26 20:46:50;;;;;;;4.38;1.00;;;;;;;14.95;61.11;98541.88;10489292;28;20047;-74
2022/07/26 20:51:52;;;;;;;3.40;0.80;;;;;;;14.96;61.25;98548.88;10486624;28;20484;-75
2022/07/26 20:56:53;;;;;;;5.50;1.10;;;;;;;14.91;61.25;98532.41;10488026;28;20127;-75
2022/07/26 21:01:55;;;;;;;3.95;0.90;;;;;;;14.90;61.60;98549.09;10487212;28;20063;-75
2022/07/26 21:06:58;;;;;;;7.15;1.17;;;;;;;14.91;61.80;98554.31;10486790;28;20041;-75
2022/07/26 21:11:59;;;;;;;5.20;0.93;;;;;;;14.89;62.13;98558.75;10487065;28;20119;-74
2022/07/26 21:17:01;;;;;;;4.97;0.80;;;;;;;14.88;62.09;98558.81;10494451;28;20064;-75
2022/07/26 21:22:03;;;;;;;3.72;0.70;;;;;;;14.78;62.38;98529.31;10486954;28;20504;-74
2022/07/26 21:27:05;;;;;;;9.52;1.25;;;;;;;14.75;62.72;98530.28;10486966;28;20124;-74
2022/07/26 21:32:06;;;;;;;5.60;0.95;;;;;;;14.70;62.64;98515.56;10486618;28;20067;-75
2022/07/26 21:37:08;;;;;;;6.03;0.90;;;;;;;14.66;62.99;98515.66;10486563;28;20044;-74
2022/07/26 21:42:09;;;;;;;3.55;0.88;;;;;;;14.53;63.13;98464.31;10485947;28;20119;-75
2022/07/26 21:47:11;;;;;;;11.75;1.10;;;;;;;14.44;63.26;98439.22;10485670;28;20043;-75
2022/07/26 21:52:13;;;;;;;6.60;0.90;;;;;;;14.39;63.58;98432.38;10484635;28;20040;-75
2022/07/26 21:57:14;;;;;;;6.28;1.25;;;;;;;14.32;63.63;98410.66;10484759;28;20538;-75
2022/07/26 22:02:16;;;;;;;5.82;1.33;;;;;;;14.24;63.83;98392.53;10485069;28;20120;-75
2022/07/26 22:07:22;;;;;;;5.88;1.10;;;;;;;14.20;64.08;98383.03;10484447;28;20056;-75
2022/07/26 22:12:24;;;;;;;8.38;1.20;;;;;;;14.11;64.24;98359.66;10483291;28;20129;-75
2022/07/26 22:17:25;;;;;;;4.35;1.02;;;;;;;14.02;64.29;98334.56;10484591;28;20037;-75
2022/07/26 22:22:27;;;;;;;4.47;0.98;;;;;;;13.94;64.53;98307.66;10484523;28;20044;-75
2022/07/26 22:27:28;;;;;;;8.27;1.13;;;;;;;13.92;64.79;98314.75;10484689;28;20411;-77
2022/07/26 22:32:30;;;;;;;4.25;1.38;;;;;;;13.86;64.87;98300.06;10484204;28;20068;-75
2022/07/26 22:37:32;;;;;;;2.65;1.02;;;;;;;13.85;65.16;98298.31;10484275;28;20602;-75
2022/07/26 22:42:34;;;;;;;7.97;1.27;;;;;;;13.87;65.32;98314.06;10481764;28;20581;-74
2022/07/26 22:47:35;;;;;;;2.65;0.95;;;;;;;13.81;65.54;98299.38;10482873;28;20044;-74
2022/07/26 22:52:40;;;;;;;4.18;0.98;;;;;;;13.74;65.84;98292.59;10482861;28;20101;-74
2022/07/26 22:57:43;;;;;;;7.65;1.23;;;;;;;13.66;65.84;98258.69;10482771;28;20064;-74
2022/07/26 23:02:45;;;;;;;4.82;1.33;;;;;;;13.60;65.96;98243.13;10482685;28;20036;-75
2022/07/26 23:07:49;;;;;;;2.22;0.80;;;;;;;13.55;66.19;98240.66;10482607;28;20045;-74
2022/07/26 23:12:52;;;;;;;3.33;0.77;;;;;;;13.51;66.51;98223.28;10483338;28;20045;-74
2022/07/26 23:17:54;;;;;;;5.25;0.80;;;;;;;13.44;66.67;98208.66;10477333;28;20048;-74